Hovedside
METAR-TAF:

METAR-TAF

Lufthavner :

Wick, Skottland

breddegrad: 58-27N, lengdegrad: 003-05W, høyde over havet: 39 m

Gjeldene værobservasjon

Denne rapporten ble laget for 43 minutter siden, klokken 14:20 UTC
Vind 8 kt fra Sør-sørøst
Temperatur 18°C
Luftfuktighet 73%
Trykk 1014 hPa
Sikt 10 km eller mer
Få skyer i en høyde av 2000 ft

METAR: EGPC 181420Z 15008KT 9999 FEW020 18/13 Q1014

Tid: 16:03 (15:03 UTC)

Varsel

Denne rapporten ble laget for 59 minutter siden, klokken 14:04 UTC
Varsel gyldig fra 18. klokken 15 UTC til 18. klokken 24 UTC
Vind 10 kt fra Sør
Sikt 10 km eller mer
Få skyer i en høyde av 1200 ft
Blir
fra 18. klokken 16 UTC til 18. klokken 19 UTC
Vind 5 kt fra Vest-nordvest
Midlertidig
fra 18. klokken 18 UTC til 18. klokken 24 UTC
Sikt: 4000 m
Brutte skyer i en høyde av 400 ft
lett regn, duskregn, dis,

TAF: EGPC 181404Z 1815/1824 17010KT 9999 FEW012 BECMG 1816/1819 30005KT TEMPO 1818/1824 4000 -RADZ BR BKN004

Værobservasjoner og værvarsel for over 4000 flyplasser (METAR- og TAF-rapporter).

Tilgjengelige stasjoner er representert av de røde og gule prikkene på kartet.

Hold musepekeren over prikken for å se navnet på stasjonen.

Klikk så for å se værobservasjoner og -varsler.

For å forandre kartet kan du klikke på den grønne knappen med svart kryss for å zoome inn, på den grønne knappen med strek for å zoome ut, eller på de grønne pilene for å se tilstøtende kart.


METAR-TAF: